Time;durP1;ratioP1;P1;durP2;ratioP2;P2;SDS_P1;SDS_P2;PMS_P1;PMS_P2;Temp;Humidity;BMP_temperature;BMP_pressure;BME280_temperature;BME280_humidity;BME280_pressure;Samples;Min_cycle;Max_cycle;Signal;HPM_P1;HPM_P2
2022/08/30 11:41:06;;;;;;;17.25;16.15;;;29.50;38.80;;;;;;5111952;27;20444;-75
2022/08/30 11:43:38;;;;;;;26.25;25.00;;;28.90;39.80;;;;;;5098505;28;20038;-75
2022/08/30 11:46:25;;;;;;;21.42;20.35;;;28.10;42.00;;;;;;5081029;28;20024;-75
2022/08/30 11:48:58;;;;;;;36.30;34.17;;;27.70;40.80;;;;;;5097688;28;20019;-75
2022/08/30 11:51:52;;;;;;;32.30;30.60;;;27.40;45.70;;;;;;5102406;28;20392;-74
2022/08/30 11:54:46;;;;;;;31.20;29.88;;;27.40;44.20;;;;;;5098593;28;20069;-75
2022/08/30 11:57:21;;;;;;;29.63;28.17;;;27.20;43.10;;;;;;5094952;28;20457;-79
2022/08/30 11:59:46;;;;;;;32.60;31.13;;;27.20;44.90;;;;;;5103914;28;20085;-78
2022/08/30 12:02:48;;;;;;;32.83;31.33;;;27.20;44.50;;;;;;5054009;28;20037;-80
2022/08/30 12:05:54;;;;;;;38.75;37.00;;;26.80;43.30;;;;;;5026077;28;20026;-79
2022/08/30 12:08:20;;;;;;;29.73;28.30;;;27.30;47.90;;;;;;4945060;29;20035;-79
2022/08/30 12:10:45;;;;;;;28.23;26.98;;;27.30;44.90;;;;;;5018292;28;20041;-81
2022/08/30 12:13:33;;;;;;;42.95;41.10;;;28.20;42.40;;;;;;5029198;28;20193;-79
2022/08/30 12:16:33;;;;;;;33.58;31.98;;;29.00;44.60;;;;;;5044590;28;20052;-79
2022/08/30 12:19:14;;;;;;;35.95;34.05;;;30.00;41.50;;;;;;5036308;28;20065;-80
2022/08/30 12:21:40;;;;;;;16.98;16.00;;;30.20;41.40;;;;;;5048818;28;20485;-81
2022/08/30 12:24:17;;;;;;;21.85;20.55;;;30.90;36.40;;;;;;5038826;28;20189;-85
2022/08/30 12:26:45;;;;;;;12.35;11.45;;;30.00;39.30;;;;;;5037102;28;20025;-88
2022/08/30 12:29:28;;;;;;;15.70;14.82;;;30.80;36.20;;;;;;5045553;28;20064;-88
2022/08/30 12:32:03;;;;;;;13.07;11.80;;;30.80;35.20;;;;;;5038729;28;20137;-81
2022/08/30 12:34:39;;;;;;;14.02;13.13;;;30.80;34.20;;;;;;5036012;28;20036;-82
2022/08/30 12:37:30;;;;;;;16.40;15.40;;;31.60;34.40;;;;;;5042503;28;20485;-81
2022/08/30 12:40:13;;;;;;;19.27;18.23;;;30.90;34.40;;;;;;5036930;28;20119;-83
2022/08/30 12:43:03;;;;;;;20.48;18.83;;;29.80;35.50;;;;;;5038475;28;20104;-83
2022/08/30 12:45:44;;;;;;;15.52;14.70;;;29.80;39.40;;;;;;5035490;28;20025;-80
2022/08/30 12:48:17;;;;;;;17.65;16.67;;;30.70;35.20;;;;;;5040009;28;20021;-80
2022/08/30 12:50:55;;;;;;;18.17;17.15;;;31.10;33.70;;;;;;5034078;28;20033;-80
2022/08/30 12:53:29;;;;;;;18.15;17.13;;;31.20;33.80;;;;;;5027883;28;20025;-82
2022/08/30 12:56:02;;;;;;;15.52;14.52;;;31.10;33.40;;;;;;5026183;28;20481;-81
2022/08/30 12:58:47;;;;;;;18.02;17.05;;;30.90;33.10;;;;;;5030279;28;20037;-81
2022/08/30 13:01:40;;;;;;;14.40;13.40;;;31.10;34.80;;;;;;5036041;28;20117;-81
2022/08/30 13:04:21;;;;;;;16.67;15.52;;;31.90;32.00;;;;;;5022779;28;20034;-89
2022/08/30 13:06:49;;;;;;;28.67;27.27;;;30.50;35.00;;;;;;5022974;28;20519;-87
2022/08/30 13:09:42;;;;;;;23.00;21.97;;;30.40;34.20;;;;;;5022748;28;20061;-87
2022/08/30 13:12:23;;;;;;;23.58;22.27;;;30.60;34.10;;;;;;5016682;28;20339;-89
2022/08/30 13:14:49;;;;;;;24.60;23.20;;;30.70;33.90;;;;;;5030776;28;20382;-90
2022/08/30 13:17:18;;;;;;;27.27;25.98;;;30.80;31.90;;;;;;5023106;28;20044;-82
2022/08/30 13:20:10;;;;;;;24.45;23.10;;;30.40;33.70;;;;;;5026129;28;20482;-89
2022/08/30 13:22:38;;;;;;;22.23;21.05;;;30.30;32.90;;;;;;5020639;28;20045;-87
2022/08/30 13:25:06;;;;;;;18.25;17.05;;;30.30;33.20;;;;;;5026569;28;20067;-87
2022/08/30 13:27:33;;;;;;;25.23;23.85;;;31.30;31.80;;;;;;5019117;28;20497;-92
2022/08/30 13:30:08;;;;;;;23.17;21.98;;;31.80;31.10;;;;;;5023072;28;20766;-83
2022/08/30 13:32:36;;;;;;;28.95;27.42;;;32.20;30.90;;;;;;5020188;28;20045;-83
2022/08/30 13:35:03;;;;;;;21.75;20.65;;;31.90;30.10;;;;;;5022342;28;20038;-84
2022/08/30 13:37:30;;;;;;;17.63;16.65;;;32.50;29.80;;;;;;5024280;28;20034;-85
2022/08/30 13:39:56;;;;;;;15.00;13.73;;;32.40;29.10;;;;;;5028533;28;20467;-86
2022/08/30 13:42:21;;;;;;;24.70;23.55;;;31.50;29.40;;;;;;5030690;28;20034;-85
2022/08/30 13:44:47;;;;;;;20.65;19.40;;;31.30;31.20;;;;;;5027568;28;20029;-85
2022/08/30 13:47:14;;;;;;;18.83;17.73;;;32.40;31.90;;;;;;5024348;28;20026;-87
2022/08/30 13:49:42;;;;;;;16.83;15.82;;;31.40;29.80;;;;;;5024544;28;20109;-90
2022/08/30 13:52:10;;;;;;;19.13;18.10;;;32.40;30.00;;;;;;5016848;28;20481;-87
2022/08/30 13:54:36;;;;;;;15.63;14.65;;;31.60;29.80;;;;;;5025206;28;20109;-89
2022/08/30 13:57:01;;;;;;;14.23;13.43;;;32.00;28.70;;;;;;5004352;28;20500;-85
2022/08/30 13:59:31;;;;;;;22.42;21.33;;;32.90;28.70;;;;;;5037560;28;20049;-85
2022/08/30 14:01:57;;;;;;;29.52;28.17;;;32.10;28.80;;;;;;5038349;28;20146;-91
2022/08/30 14:04:23;;;;;;;16.92;15.82;;;32.30;31.00;;;;;;5022646;28;20088;-92
2022/08/30 14:06:49;;;;;;;17.42;16.42;;;32.80;29.00;;;;;;5021610;28;20510;-88
2022/08/30 14:09:14;;;;;;;20.80;19.70;;;32.60;28.60;;;;;;5024443;28;20385;-88
2022/08/30 14:11:40;;;;;;;16.40;15.23;;;32.30;29.00;;;;;;5028999;28;20401;-87
2022/08/30 14:14:06;;;;;;;16.23;15.32;;;32.50;28.40;;;;;;5017371;28;20034;-94
2022/08/30 14:16:34;;;;;;;17.38;16.23;;;33.00;28.40;;;;;;5019654;28;20127;-90
2022/08/30 14:19:01;;;;;;;27.75;26.52;;;33.20;28.80;;;;;;5014528;28;20034;-89
2022/08/30 14:21:27;;;;;;;25.58;24.38;;;33.30;29.20;;;;;;5027698;28;20037;-89
2022/08/30 14:23:54;;;;;;;24.95;23.60;;;33.00;29.10;;;;;;5030568;28;20563;-88
2022/08/30 14:26:23;;;;;;;15.80;14.88;;;33.10;29.60;;;;;;5002861;28;20053;-88
2022/08/30 14:28:49;;;;;;;17.17;16.15;;;33.00;27.90;;;;;;5016489;28;20084;-90
2022/08/30 14:31:15;;;;;;;19.27;18.23;;;33.10;28.30;;;;;;5014133;28;20561;-90
2022/08/30 14:33:41;;;;;;;20.33;19.20;;;33.00;28.30;;;;;;5013567;28;20208;-90
2022/08/30 14:36:08;;;;;;;16.58;15.68;;;32.50;27.80;;;;;;5012411;28;20505;-89
2022/08/30 14:38:35;;;;;;;17.92;16.52;;;33.60;27.60;;;;;;5021399;28;20152;-87
2022/08/30 14:41:02;;;;;;;16.13;15.15;;;34.00;28.60;;;;;;5022752;28;20029;-87
2022/08/30 14:43:27;;;;;;;17.90;16.90;;;33.90;27.20;;;;;;5018293;28;20052;-88
2022/08/30 14:45:53;;;;;;;19.98;18.98;;;35.90;25.90;;;;;;5014228;28;20545;-87
2022/08/30 14:48:19;;;;;;;42.90;23.60;;;36.10;24.60;;;;;;5020772;28;20084;-88
2022/08/30 14:50:45;;;;;;;17.30;15.75;;;34.60;25.70;;;;;;5007732;28;20413;-85
2022/08/30 14:53:10;;;;;;;16.98;16.08;;;34.10;27.40;;;;;;5013421;28;20461;-93
2022/08/30 14:55:36;;;;;;;19.38;17.90;;;34.00;26.80;;;;;;5006253;28;20033;-87
2022/08/30 14:58:02;;;;;;;17.65;16.35;;;33.90;27.50;;;;;;4995215;28;20069;-84
2022/08/30 15:00:27;;;;;;;22.75;20.73;;;32.50;28.20;;;;;;5012643;28;20037;-89
2022/08/30 15:02:53;;;;;;;18.95;17.75;;;31.80;29.50;;;;;;4979386;28;20517;-90
2022/08/30 15:05:19;;;;;;;19.00;17.83;;;31.60;29.60;;;;;;5012966;28;20405;-90
2022/08/30 15:07:49;;;;;;;22.10;21.00;;;31.30;30.00;;;;;;5030510;28;20090;-92
2022/08/30 15:10:17;;;;;;;29.02;27.63;;;30.90;31.50;;;;;;5004870;28;20029;-90
2022/08/30 15:12:46;;;;;;;24.40;23.17;;;29.80;32.80;;;;;;5020289;28;20365;-89
2022/08/30 15:15:14;;;;;;;26.92;25.63;;;29.20;34.20;;;;;;5015751;28;20033;-90
2022/08/30 15:17:40;;;;;;;29.00;27.60;;;28.60;35.70;;;;;;5013826;28;20034;-92
2022/08/30 15:20:07;;;;;;;27.30;25.83;;;27.90;36.80;;;;;;5003842;28;20057;-91
2022/08/30 15:22:32;;;;;;;28.30;26.80;;;27.90;36.70;;;;;;4986268;28;20041;-89
2022/08/30 15:25:00;;;;;;;29.35;27.95;;;27.80;36.60;;;;;;5018059;28;20029;-92
2022/08/30 15:27:26;;;;;;;27.08;25.77;;;27.30;37.90;;;;;;5016060;28;20034;-89
2022/08/30 15:29:51;;;;;;;23.88;22.67;;;27.80;37.60;;;;;;5011778;28;20112;-89
2022/08/30 15:32:17;;;;;;;24.10;22.75;;;27.80;36.90;;;;;;5010736;28;20041;-86
2022/08/30 15:34:42;;;;;;;24.13;22.45;;;27.50;36.30;;;;;;5014046;28;21703;-80
2022/08/30 15:37:08;;;;;;;21.50;20.30;;;27.40;38.20;;;;;;5012633;28;20034;-83
2022/08/30 15:39:34;;;;;;;30.45;28.25;;;27.60;38.40;;;;;;5007968;28;20046;-84
2022/08/30 15:41:59;;;;;;;25.95;24.60;;;28.00;37.70;;;;;;5010082;28;20033;-78
2022/08/30 15:44:25;;;;;;;26.70;25.40;;;27.90;37.20;;;;;;5016837;28;20084;-79
2022/08/30 15:46:51;;;;;;;31.90;30.35;;;27.50;40.00;;;;;;5015653;28;20026;-78
2022/08/30 15:49:19;;;;;;;31.60;29.50;;;27.20;38.60;;;;;;5025042;28;20021;-78
2022/08/30 15:51:47;;;;;;;29.98;28.50;;;27.20;40.20;;;;;;5019237;28;20034;-78
2022/08/30 15:54:16;;;;;;;34.22;32.60;;;27.00;41.10;;;;;;5019045;28;20520;-78
2022/08/30 15:56:42;;;;;;;;;;;26.50;39.90;;;;;;5024004;28;20087;-78
2022/08/30 15:59:08;;;;;;;31.67;30.08;;;26.60;41.80;;;;;;5022864;28;20410;-78
2022/08/30 16:01:36;;;;;;;33.80;32.20;;;26.40;42.80;;;;;;5002749;28;20029;-78
2022/08/30 16:04:02;;;;;;;32.75;31.33;;;25.90;41.70;;;;;;5024146;28;20135;-78
2022/08/30 16:06:33;;;;;;;29.90;28.08;;;26.00;43.80;;;;;;5023528;28;20387;-78
2022/08/30 16:08:59;;;;;;;32.78;30.90;;;25.90;44.00;;;;;;5022348;28;20025;-78
2022/08/30 16:11:26;;;;;;;33.08;31.42;;;25.80;45.00;;;;;;5022080;28;20026;-78
2022/08/30 16:13:53;;;;;;;32.45;30.92;;;25.50;44.00;;;;;;5035840;28;20029;-79
2022/08/30 16:16:20;;;;;;;35.80;33.97;;;25.70;44.70;;;;;;5025838;28;20036;-78
2022/08/30 16:18:47;;;;;;;33.20;31.73;;;25.40;43.70;;;;;;5019668;28;20034;-78
2022/08/30 16:21:15;;;;;;;28.10;26.70;;;25.30;45.00;;;;;;5021430;28;20525;-80
2022/08/30 16:23:42;;;;;;;32.75;31.08;;;25.00;46.60;;;;;;5024494;28;20036;-79
2022/08/30 16:26:09;;;;;;;30.80;29.25;;;25.20;45.90;;;;;;5022093;28;20040;-80
2022/08/30 16:28:35;;;;;;;33.08;31.33;;;25.00;45.30;;;;;;5022197;28;20486;-79
2022/08/30 16:31:03;;;;;;;32.03;30.25;;;25.10;45.00;;;;;;5024162;28;20103;-79
2022/08/30 16:33:30;;;;;;;28.95;27.40;;;25.00;45.70;;;;;;5029166;28;20025;-79
2022/08/30 16:35:56;;;;;;;30.92;29.10;;;24.90;46.50;;;;;;5026625;28;20022;-79
2022/08/30 16:38:24;;;;;;;27.90;26.42;;;24.80;46.90;;;;;;5017827;28;20017;-79
2022/08/30 16:40:50;;;;;;;35.30;33.45;;;24.70;47.30;;;;;;5024912;28;20025;-79
2022/08/30 16:43:16;;;;;;;23.77;22.48;;;24.70;47.00;;;;;;5025757;28;20137;-79
2022/08/30 16:45:42;;;;;;;26.30;24.90;;;24.60;48.10;;;;;;5027926;28;20052;-79
2022/08/30 16:48:09;;;;;;;33.13;31.05;;;24.30;49.40;;;;;;5023140;28;20100;-79
2022/08/30 16:50:36;;;;;;;28.67;27.27;;;24.50;48.50;;;;;;5027015;28;20501;-79
2022/08/30 16:53:02;;;;;;;28.65;27.25;;;24.70;49.10;;;;;;5014549;28;20355;-79
2022/08/30 16:55:28;;;;;;;27.92;26.17;;;24.40;49.00;;;;;;5024566;28;20056;-79
2022/08/30 16:57:54;;;;;;;25.92;24.63;;;24.30;50.30;;;;;;5020465;28;20578;-79
2022/08/30 17:00:19;;;;;;;29.88;28.17;;;24.30;49.60;;;;;;5023755;28;20038;-79
2022/08/30 17:02:45;;;;;;;28.85;27.20;;;24.20;49.80;;;;;;5028283;28;20496;-78
2022/08/30 17:05:11;;;;;;;28.38;26.95;;;24.20;50.50;;;;;;5026623;28;20030;-79
2022/08/30 17:07:36;;;;;;;25.75;24.25;;;24.00;50.90;;;;;;5023079;28;20091;-79
2022/08/30 17:10:03;;;;;;;27.38;25.63;;;23.80;52.00;;;;;;5024593;28;20040;-78
2022/08/30 17:12:28;;;;;;;27.65;26.05;;;23.70;53.30;;;;;;5029042;28;20056;-78
2022/08/30 17:14:54;;;;;;;29.08;26.98;;;23.70;55.50;;;;;;5019301;28;20056;-79
2022/08/30 17:17:20;;;;;;;29.52;28.00;;;23.70;56.30;;;;;;5027308;28;20038;-79
2022/08/30 17:19:46;;;;;;;30.85;29.13;;;23.60;59.50;;;;;;5021716;28;20057;-78
2022/08/30 17:22:12;;;;;;;41.40;39.40;;;23.30;62.70;;;;;;5020786;28;20033;-78
2022/08/30 17:24:38;;;;;;;44.35;42.30;;;23.20;64.20;;;;;;5026977;28;20030;-76
2022/08/30 17:27:05;;;;;;;38.60;36.88;;;23.00;64.30;;;;;;5027827;28;20052;-76
2022/08/30 17:29:31;;;;;;;40.13;37.95;;;22.90;66.10;;;;;;5023712;28;20104;-84
2022/08/30 17:31:57;;;;;;;43.97;41.70;;;22.80;66.60;;;;;;5008081;28;20031;-82
2022/08/30 17:34:24;;;;;;;38.67;36.80;;;22.60;69.80;;;;;;5030104;28;20616;-83
2022/08/30 17:36:51;;;;;;;45.63;43.35;;;22.60;71.00;;;;;;5013579;28;20120;-86
2022/08/30 17:39:17;;;;;;;43.80;41.67;;;22.50;72.90;;;;;;5027577;28;20065;-86
2022/08/30 17:41:43;;;;;;;46.08;43.08;;;22.30;74.00;;;;;;5024994;28;20024;-88
2022/08/30 17:44:10;;;;;;;38.58;36.72;;;22.20;74.80;;;;;;5023427;28;20481;-84
2022/08/30 17:46:36;;;;;;;36.20;33.42;;;22.10;75.90;;;;;;5022803;28;20037;-83
2022/08/30 17:49:02;;;;;;;34.50;32.65;;;21.80;78.30;;;;;;5025961;28;20033;-85
2022/08/30 17:51:29;;;;;;;26.52;24.98;;;21.70;80.60;;;;;;5001619;28;20139;-83
2022/08/30 17:53:54;;;;;;;23.70;21.67;;;21.50;84.10;;;;;;5020850;28;20030;-84
2022/08/30 17:56:21;;;;;;;22.42;21.02;;;21.40;82.90;;;;;;5028768;28;20029;-83
2022/08/30 17:58:51;;;;;;;19.05;17.67;;;21.30;85.20;;;;;;5024895;28;20029;-84
2022/08/30 18:01:18;;;;;;;20.10;18.75;;;21.10;86.80;;;;;;5024489;28;20513;-84
2022/08/30 18:03:45;;;;;;;17.00;15.90;;;21.00;89.10;;;;;;5022969;28;20022;-79
2022/08/30 18:06:11;;;;;;;18.00;16.73;;;20.90;90.30;;;;;;5029030;28;20025;-78
2022/08/30 18:08:37;;;;;;;16.23;14.90;;;20.80;90.20;;;;;;5027501;28;20055;-79
2022/08/30 18:11:04;;;;;;;17.25;15.65;;;20.70;90.20;;;;;;5008777;28;20034;-82
2022/08/30 18:13:30;;;;;;;18.05;16.85;;;20.60;91.30;;;;;;5028888;28;20031;-82
2022/08/30 18:15:56;;;;;;;19.92;18.63;;;20.50;92.50;;;;;;5025098;28;20045;-81
2022/08/30 18:18:22;;;;;;;23.25;21.77;;;20.30;92.60;;;;;;5021305;28;20481;-78
2022/08/30 18:20:47;;;;;;;22.92;21.42;;;20.20;93.50;;;;;;5027749;28;20040;-75
2022/08/30 18:23:13;;;;;;;24.52;23.27;;;20.10;93.90;;;;;;5012453;28;20109;-76
2022/08/30 18:25:39;;;;;;;23.70;22.05;;;20.10;95.00;;;;;;5018363;28;20025;-75
2022/08/30 18:28:05;;;;;;;28.90;27.17;;;20.00;95.30;;;;;;5022613;28;20099;-76
2022/08/30 18:30:32;;;;;;;22.65;21.33;;;20.00;94.80;;;;;;5016571;28;20437;-75
2022/08/30 18:32:57;;;;;;;26.48;25.02;;;19.80;95.50;;;;;;5017190;28;20091;-75
2022/08/30 18:35:24;;;;;;;26.30;24.85;;;19.70;97.00;;;;;;5021968;28;20033;-76
2022/08/30 18:37:50;;;;;;;24.77;23.15;;;19.60;96.70;;;;;;5014686;28;20030;-77
2022/08/30 18:40:16;;;;;;;24.52;22.88;;;19.50;97.60;;;;;;5014034;28;20042;-76
2022/08/30 18:42:41;;;;;;;23.20;21.35;;;19.50;97.80;;;;;;5015615;28;20409;-76
2022/08/30 18:45:07;;;;;;;23.67;21.65;;;19.40;98.10;;;;;;5018169;28;20072;-76
2022/08/30 18:47:34;;;;;;;21.77;20.45;;;19.30;98.50;;;;;;5012436;28;20025;-76
2022/08/30 18:50:01;;;;;;;22.15;20.90;;;19.20;99.10;;;;;;5017155;28;20038;-76
2022/08/30 18:52:27;;;;;;;22.75;21.17;;;19.30;98.00;;;;;;5012393;28;20507;-79
2022/08/30 18:54:52;;;;;;;24.83;23.13;;;19.20;98.10;;;;;;5019230;28;20030;-76
2022/08/30 18:57:19;;;;;;;24.08;22.58;;;19.10;98.60;;;;;;5013567;28;20042;-76
2022/08/30 18:59:44;;;;;;;24.02;21.83;;;19.10;99.20;;;;;;5011347;28;20034;-76
2022/08/30 19:02:13;;;;;;;24.65;22.98;;;19.00;99.20;;;;;;5021342;28;20037;-76
2022/08/30 19:04:41;;;;;;;25.85;23.67;;;19.00;99.70;;;;;;5023083;28;20108;-76
2022/08/30 19:07:09;;;;;;;24.83;22.52;;;18.90;98.90;;;;;;5022560;28;20026;-76
2022/08/30 19:09:35;;;;;;;23.98;22.65;;;19.00;99.10;;;;;;5023252;28;20025;-76
2022/08/30 19:12:02;;;;;;;26.73;25.15;;;18.80;99.60;;;;;;5024226;28;20029;-76
2022/08/30 19:14:28;;;;;;;24.58;23.17;;;18.80;99.20;;;;;;5022541;28;20061;-76
2022/08/30 19:16:55;;;;;;;25.30;23.42;;;18.80;99.90;;;;;;5022600;28;20532;-76
2022/08/30 19:19:20;;;;;;;24.02;22.52;;;18.80;99.40;;;;;;5026720;28;20048;-76
2022/08/30 19:21:46;;;;;;;25.75;24.13;;;18.80;99.00;;;;;;5023660;28;20034;-76
2022/08/30 19:24:12;;;;;;;24.10;22.40;;;18.80;97.20;;;;;;5029114;28;20394;-76
2022/08/30 19:26:39;;;;;;;23.83;22.08;;;18.80;97.30;;;;;;5022588;28;20095;-75
2022/08/30 19:29:06;;;;;;;26.20;24.80;;;18.80;96.80;;;;;;5017576;28;20544;-75
2022/08/30 19:31:31;;;;;;;21.40;19.90;;;18.80;96.80;;;;;;5021591;28;20175;-76
2022/08/30 19:33:57;;;;;;;24.52;22.92;;;18.80;97.70;;;;;;5023360;28;20560;-76
2022/08/30 19:36:23;;;;;;;22.48;20.70;;;18.80;96.30;;;;;;5019815;28;20033;-76
2022/08/30 19:38:48;;;;;;;22.40;21.20;;;18.80;96.40;;;;;;5021280;28;20543;-75
2022/08/30 19:41:14;;;;;;;27.10;25.27;;;18.90;94.80;;;;;;5027089;28;20401;-76
2022/08/30 19:43:40;;;;;;;23.25;20.98;;;19.00;94.40;;;;;;5019962;28;20401;-76
2022/08/30 19:46:07;;;;;;;26.88;25.13;;;19.00;94.60;;;;;;5026413;28;20108;-76
2022/08/30 19:48:33;;;;;;;25.95;24.48;;;19.00;94.20;;;;;;5027260;28;20029;-76
2022/08/30 19:51:00;;;;;;;23.60;22.35;;;19.00;94.20;;;;;;5027417;28;20029;-76
2022/08/30 19:53:25;;;;;;;25.25;23.92;;;18.90;95.00;;;;;;5026907;28;20026;-76
2022/08/30 19:55:51;;;;;;;27.58;25.52;;;19.00;93.90;;;;;;5026859;28;20497;-76
2022/08/30 19:58:17;;;;;;;27.92;26.23;;;19.00;94.00;;;;;;5022754;28;20038;-80
2022/08/30 20:00:45;;;;;;;24.35;23.05;;;18.90;94.50;;;;;;5022003;28;20088;-78
2022/08/30 20:03:10;;;;;;;20.95;19.73;;;18.80;95.40;;;;;;5024571;28;20030;-78
2022/08/30 20:05:36;;;;;;;22.55;21.15;;;18.80;95.70;;;;;;5029659;28;20021;-78
2022/08/30 20:08:02;;;;;;;23.17;21.60;;;18.70;95.90;;;;;;5029849;28;20056;-78
2022/08/30 20:10:28;;;;;;;23.55;21.23;;;18.70;95.90;;;;;;5026854;28;20083;-78
2022/08/30 20:12:54;;;;;;;19.85;18.60;;;18.80;94.50;;;;;;5030472;28;20387;-78
2022/08/30 20:15:20;;;;;;;19.95;18.63;;;18.90;94.10;;;;;;5026819;28;20026;-78
2022/08/30 20:17:47;;;;;;;24.15;22.75;;;19.00;93.60;;;;;;5027800;28;20036;-79
2022/08/30 20:20:15;;;;;;;23.60;22.30;;;19.00;94.00;;;;;;5030068;28;20032;-79
2022/08/30 20:22:41;;;;;;;23.02;21.33;;;19.00;93.70;;;;;;5026941;28;20033;-77
2022/08/30 20:25:07;;;;;;;26.23;24.70;;;19.10;93.40;;;;;;5019995;28;20712;-78
2022/08/30 20:27:35;;;;;;;22.90;21.40;;;19.00;94.30;;;;;;5016472;28;20509;-78
2022/08/30 20:30:02;;;;;;;21.85;20.45;;;18.90;94.50;;;;;;5023954;28;20033;-78
2022/08/30 20:32:28;;;;;;;21.25;19.20;;;18.80;94.80;;;;;;5029129;28;20048;-78
2022/08/30 20:34:53;;;;;;;22.58;21.17;;;18.80;95.10;;;;;;5026722;28;20332;-78
2022/08/30 20:37:22;;;;;;;23.42;21.95;;;18.80;94.90;;;;;;5024553;28;20025;-77
2022/08/30 20:39:48;;;;;;;21.88;20.38;;;18.80;95.80;;;;;;5029830;28;20440;-78
2022/08/30 20:42:14;;;;;;;19.23;18.02;;;18.80;94.90;;;;;;5026147;28;20416;-78
2022/08/30 20:44:40;;;;;;;22.38;21.00;;;18.70;96.00;;;;;;5030128;28;20547;-78
2022/08/30 20:47:06;;;;;;;22.02;20.73;;;18.70;95.00;;;;;;5028877;28;20073;-78
2022/08/30 20:49:32;;;;;;;21.65;20.25;;;18.70;95.70;;;;;;5028788;28;20040;-78
2022/08/30 20:51:58;;;;;;;21.73;20.33;;;18.70;95.30;;;;;;5027259;28;20040;-78
2022/08/30 20:54:23;;;;;;;23.45;21.95;;;18.70;94.90;;;;;;5019788;28;20046;-79
2022/08/30 20:56:50;;;;;;;20.80;19.50;;;18.70;94.50;;;;;;5026019;28;20037;-79
2022/08/30 20:59:16;;;;;;;20.75;19.00;;;18.70;94.60;;;;;;5026643;28;20493;-78
2022/08/30 21:01:42;;;;;;;21.48;19.63;;;18.70;95.30;;;;;;5014608;28;20712;-77
2022/08/30 21:04:09;;;;;;;20.88;19.58;;;18.60;95.40;;;;;;5018583;28;20021;-78
2022/08/30 21:06:36;;;;;;;20.35;19.05;;;18.60;95.40;;;;;;5022046;28;20507;-79
2022/08/30 21:09:07;;;;;;;19.95;18.70;;;18.50;95.80;;;;;;5028885;28;20465;-78
2022/08/30 21:11:34;;;;;;;20.27;18.90;;;18.50;97.20;;;;;;5030916;28;20038;-78
2022/08/30 21:14:01;;;;;;;21.70;20.48;;;18.50;96.90;;;;;;5025087;28;20124;-78
2022/08/30 21:16:26;;;;;;;23.05;21.23;;;18.20;99.60;;;;;;5021106;28;20042;-78
2022/08/30 21:18:52;;;;;;;24.88;23.13;;;18.20;99.10;;;;;;5030965;28;20497;-78
2022/08/30 21:21:21;;;;;;;34.45;32.08;;;18.10;99.60;;;;;;5027603;28;20377;-78
2022/08/30 21:23:52;;;;;;;29.98;27.98;;;18.00;99.90;;;;;;5026230;28;20087;-77
2022/08/30 21:26:18;;;;;;;39.13;37.17;;;17.90;99.90;;;;;;5023123;28;20049;-77
2022/08/30 21:28:53;;;;;;;38.85;36.55;;;17.90;99.90;;;;;;5022016;28;20103;-78
2022/08/30 21:31:22;;;;;;;31.42;29.50;;;17.90;99.90;;;;;;5026409;28;20030;-78
2022/08/30 21:33:50;;;;;;;27.98;26.25;;;17.80;99.90;;;;;;5020367;28;20602;-77
2022/08/30 21:39:01;;;;;;;25.70;23.88;;;17.80;99.90;;;;;;5027440;28;20143;-78
2022/08/30 21:41:29;;;;;;;34.22;32.17;;;17.70;99.90;;;;;;5012829;28;20083;-78
2022/08/30 21:43:56;;;;;;;35.15;33.28;;;17.60;99.90;;;;;;5029112;28;20288;-78
2022/08/30 21:46:23;;;;;;;33.90;31.67;;;17.60;99.90;;;;;;5005560;28;20030;-77
2022/08/30 21:48:49;;;;;;;34.17;32.03;;;17.60;99.90;;;;;;5030519;28;20049;-78
2022/08/30 21:51:16;;;;;;;39.22;36.83;;;17.50;99.90;;;;;;5012253;28;20033;-77
2022/08/30 21:53:41;;;;;;;42.15;39.83;;;17.40;99.90;;;;;;5030068;28;20064;-78
2022/08/30 21:56:12;;;;;;;66.95;63.78;;;17.40;99.90;;;;;;5029629;28;20057;-78
2022/08/30 21:58:38;;;;;;;39.92;37.45;;;17.20;99.90;;;;;;5028652;28;20025;-78
2022/08/30 22:01:13;;;;;;;61.13;57.67;;;17.20;99.90;;;;;;5024335;28;20547;-78
2022/08/30 22:03:41;;;;;;;45.15;42.97;;;17.20;99.90;;;;;;5027899;28;20658;-78
2022/08/30 22:06:08;;;;;;;45.85;43.22;;;17.20;99.90;;;;;;5029427;28;20557;-78
2022/08/30 22:08:34;;;;;;;64.22;61.13;;;17.10;99.90;;;;;;5027206;28;20113;-77
2022/08/30 22:10:59;;;;;;;54.22;51.58;;;17.10;99.90;;;;;;5029898;28;20152;-78
2022/08/30 22:13:25;;;;;;;44.22;41.90;;;17.10;99.90;;;;;;5030706;28;20091;-78
2022/08/30 22:15:52;;;;;;;38.15;35.67;;;17.20;99.90;;;;;;5029815;28;20025;-78
2022/08/30 22:18:17;;;;;;;30.42;28.67;;;17.20;99.90;;;;;;5026874;28;20033;-78
2022/08/30 22:20:43;;;;;;;27.70;26.00;;;17.30;99.90;;;;;;5025654;28;20473;-78
2022/08/30 22:23:09;;;;;;;24.98;23.20;;;17.30;99.90;;;;;;5009252;28;20041;-78
2022/08/30 22:25:34;;;;;;;24.27;22.65;;;17.30;99.90;;;;;;5028288;28;20025;-78
2022/08/30 22:28:00;;;;;;;23.13;21.70;;;17.30;99.90;;;;;;5028325;28;20033;-78
2022/08/30 22:30:26;;;;;;;28.52;26.67;;;17.40;99.90;;;;;;5025578;28;20064;-77
2022/08/30 22:32:52;;;;;;;26.13;24.27;;;17.30;99.90;;;;;;5019842;28;20064;-78
2022/08/30 22:35:18;;;;;;;26.13;24.45;;;17.20;99.90;;;;;;5023446;28;20072;-78
2022/08/30 22:37:43;;;;;;;26.55;24.08;;;17.30;99.90;;;;;;5026469;28;20029;-78
2022/08/30 22:40:09;;;;;;;28.08;26.27;;;17.20;99.90;;;;;;5021027;28;20517;-77
2022/08/30 22:42:35;;;;;;;26.02;24.27;;;17.20;99.90;;;;;;5029686;28;20422;-79
2022/08/30 22:45:01;;;;;;;27.05;25.25;;;17.10;99.90;;;;;;5027744;28;20532;-77
2022/08/30 22:47:27;;;;;;;28.13;26.45;;;17.10;99.90;;;;;;5010452;28;20059;-77
2022/08/30 22:49:53;;;;;;;31.63;29.90;;;17.10;99.90;;;;;;5026982;28;20489;-78
2022/08/30 22:52:19;;;;;;;31.00;29.05;;;17.00;99.90;;;;;;5021736;28;20068;-78
2022/08/30 22:54:46;;;;;;;30.40;28.35;;;17.20;99.90;;;;;;5027679;28;20038;-78
2022/08/30 22:57:14;;;;;;;30.52;28.48;;;17.20;99.90;;;;;;5023759;28;20036;-78
2022/08/30 22:59:40;;;;;;;27.98;26.27;;;17.20;99.90;;;;;;5023437;28;20084;-78
2022/08/30 23:02:06;;;;;;;24.73;23.25;;;17.10;99.90;;;;;;5020592;28;20026;-78
2022/08/30 23:04:34;;;;;;;25.45;23.65;;;17.30;99.90;;;;;;5028771;28;20052;-78
2022/08/30 23:07:00;;;;;;;51.20;48.75;;;17.20;99.90;;;;;;5024353;28;20045;-78
2022/08/30 23:09:27;;;;;;;24.00;22.40;;;17.20;99.90;;;;;;5027347;28;20124;-78
2022/08/30 23:11:53;;;;;;;29.73;27.88;;;17.30;99.90;;;;;;5024297;28;20116;-77
2022/08/30 23:14:19;;;;;;;23.77;22.08;;;17.30;99.90;;;;;;5025043;28;20039;-76
2022/08/30 23:16:46;;;;;;;21.98;20.63;;;17.40;99.90;;;;;;5026763;28;20048;-77
2022/08/30 23:19:12;;;;;;;21.98;20.23;;;17.30;99.90;;;;;;5021892;28;20127;-78
2022/08/30 23:21:38;;;;;;;22.58;21.15;;;17.30;99.90;;;;;;5020669;28;20029;-77
